createdAt,value
2022-10-22T00:01:47.668Z,14.40
2022-10-22T00:04:17.409Z,14.38
2022-10-22T00:06:49.725Z,14.36
2022-10-22T00:09:19.488Z,14.32
2022-10-22T00:11:49.283Z,14.28
2022-10-22T00:14:19.157Z,14.26
2022-10-22T00:16:48.862Z,14.23
2022-10-22T00:19:18.559Z,14.21
2022-10-22T00:21:50.877Z,14.17
2022-10-22T00:24:20.557Z,14.14
2022-10-22T00:26:50.365Z,14.11
2022-10-22T00:29:21.115Z,14.09
2022-10-22T00:31:52.533Z,14.05
2022-10-22T00:34:23.723Z,14.02
2022-10-22T00:36:56.323Z,13.99
2022-10-22T00:39:28.188Z,13.95
2022-10-22T00:41:59.541Z,13.93
2022-10-22T00:45:04.892Z,13.89
2022-10-22T00:47:36.387Z,13.84
2022-10-22T00:50:08.831Z,13.81
2022-10-22T00:52:42.381Z,13.79
2022-10-22T00:55:13.150Z,13.77
2022-10-22T00:57:43.485Z,13.75
2022-10-22T01:00:14.625Z,13.72
2022-10-22T01:02:44.390Z,13.71
2022-10-22T01:05:14.744Z,13.70
2022-10-22T01:07:50.341Z,13.67
2022-10-22T01:10:44.732Z,13.68
2022-10-22T01:13:24.955Z,13.63
2022-10-22T01:16:02.496Z,13.61
2022-10-22T01:18:39.577Z,13.59
2022-10-22T01:21:21.036Z,13.57
2022-10-22T01:24:16.101Z,13.56
2022-10-22T01:27:03.457Z,13.55
2022-10-22T01:29:40.639Z,13.54
2022-10-22T01:32:15.559Z,13.54
2022-10-22T01:34:49.933Z,13.54
2022-10-22T01:37:23.544Z,13.53
2022-10-22T01:39:54.801Z,13.54
2022-10-22T01:42:24.493Z,13.54
2022-10-22T01:44:56.873Z,13.54
2022-10-22T01:47:40.609Z,13.54
2022-10-22T01:50:46.089Z,13.52
2022-10-22T01:53:27.074Z,13.52
2022-10-22T01:56:12.524Z,13.52
2022-10-22T01:58:48.055Z,13.51
2022-10-22T02:01:29.560Z,13.52
2022-10-22T02:04:08.106Z,13.51
2022-10-22T02:06:41.604Z,13.51
2022-10-22T02:09:12.787Z,13.51
2022-10-22T02:11:43.332Z,13.51
2022-10-22T02:14:14.854Z,13.52
2022-10-22T02:16:50.348Z,13.52
2022-10-22T02:19:27.384Z,13.52
2022-10-22T02:21:57.929Z,13.52
2022-10-22T02:24:28.497Z,13.52
2022-10-22T02:27:07.351Z,13.52
2022-10-22T02:29:42.064Z,13.52
2022-10-22T02:32:21.073Z,13.52
2022-10-22T02:34:52.461Z,13.52
2022-10-22T02:37:23.785Z,13.51
2022-10-22T02:39:56.388Z,13.51
2022-10-22T02:42:28.141Z,13.51
2022-10-22T02:44:57.835Z,13.53
2022-10-22T02:47:30.245Z,13.53
2022-10-22T02:49:59.928Z,13.54
2022-10-22T02:52:29.618Z,13.55
2022-10-22T02:54:59.337Z,13.57
2022-10-22T02:57:29.128Z,13.58
2022-10-22T02:59:58.841Z,13.59
2022-10-22T03:02:31.170Z,13.61
2022-10-22T03:05:00.952Z,13.62
2022-10-22T03:07:30.621Z,13.64
2022-10-22T03:10:00.315Z,13.66
2022-10-22T03:12:30.047Z,13.68
2022-10-22T03:14:59.740Z,13.69
2022-10-22T03:17:32.078Z,13.68
2022-10-22T03:20:01.745Z,13.69
2022-10-22T03:22:35.107Z,13.68
2022-10-22T03:25:10.716Z,13.70
2022-10-22T03:27:42.876Z,13.70
2022-10-22T03:30:14.240Z,13.71
2022-10-22T03:32:46.568Z,13.70
2022-10-22T03:35:16.263Z,13.71
2022-10-22T03:37:45.986Z,13.72
2022-10-22T03:40:16.973Z,13.71
2022-10-22T03:42:46.802Z,13.71
2022-10-22T03:45:16.615Z,13.71
2022-10-22T03:47:48.884Z,13.70
2022-10-22T03:50:18.908Z,13.69
2022-10-22T03:52:48.596Z,13.68
2022-10-22T03:55:18.299Z,13.66
2022-10-22T03:57:48.013Z,13.66
2022-10-22T04:00:18.285Z,13.66
2022-10-22T04:02:50.572Z,13.63
2022-10-22T04:05:20.483Z,13.63
2022-10-22T04:07:50.165Z,13.61
2022-10-22T04:10:20.023Z,13.60
2022-10-22T04:12:50.401Z,13.60
2022-10-22T04:15:20.517Z,13.60
2022-10-22T04:17:52.862Z,13.60
2022-10-22T04:20:22.625Z,13.57
2022-10-22T04:22:52.308Z,13.57
2022-10-22T04:25:22.029Z,13.55
2022-10-22T04:27:51.705Z,13.56
2022-10-22T04:30:21.645Z,13.54
2022-10-22T04:32:53.950Z,13.53
2022-10-22T04:38:13.306Z,13.50
2022-10-22T04:40:43.000Z,13.49
2022-10-22T04:43:12.713Z,13.50
2022-10-22T04:45:42.401Z,13.49
2022-10-22T04:48:14.695Z,13.48
2022-10-22T04:50:44.439Z,13.47
2022-10-22T04:53:14.145Z,13.48
2022-10-22T04:55:43.825Z,13.47
2022-10-22T04:58:13.519Z,13.48
2022-10-22T05:00:43.247Z,13.49
2022-10-22T05:03:15.578Z,13.49
2022-10-22T05:05:45.262Z,13.51
2022-10-22T05:08:14.950Z,13.51
2022-10-22T05:10:44.622Z,13.51
2022-10-22T05:13:14.299Z,13.52
2022-10-22T05:15:44.007Z,13.53
2022-10-22T05:18:18.993Z,13.54
2022-10-22T05:20:51.549Z,13.55
2022-10-22T05:23:21.240Z,13.54
2022-10-22T05:25:50.912Z,13.53
2022-10-22T05:28:20.591Z,13.54
2022-10-22T05:30:56.856Z,13.54
2022-10-22T05:33:29.532Z,13.54
2022-10-22T05:36:00.114Z,13.55
2022-10-22T05:38:30.213Z,13.55
2022-10-22T05:41:05.652Z,13.54
2022-10-22T05:43:35.874Z,13.54
2022-10-22T05:46:07.148Z,13.54
2022-10-22T05:48:40.174Z,13.55
2022-10-22T05:51:12.308Z,13.55
2022-10-22T05:53:44.656Z,13.56
2022-10-22T05:56:16.461Z,13.56
2022-10-22T05:58:47.463Z,13.57
2022-10-22T06:01:19.873Z,13.58
2022-10-22T06:03:52.844Z,13.57
2022-10-22T06:06:24.488Z,13.56
2022-10-22T06:08:55.369Z,13.58
2022-10-22T06:11:28.845Z,13.57
2022-10-22T06:14:00.891Z,13.58
2022-10-22T06:16:32.173Z,13.59
2022-10-22T06:19:05.366Z,13.59
2022-10-22T06:21:35.833Z,13.59
2022-10-22T06:24:05.592Z,13.59
2022-10-22T06:26:35.451Z,13.61
2022-10-22T06:29:05.712Z,13.62
2022-10-22T06:31:37.070Z,13.63
2022-10-22T06:34:10.983Z,13.66
2022-10-22T06:36:42.842Z,13.65
2022-10-22T06:39:14.614Z,13.67
2022-10-22T06:41:44.756Z,13.68
2022-10-22T06:44:17.369Z,13.70
2022-10-22T06:46:47.269Z,13.70
2022-10-22T06:49:19.607Z,13.73
2022-10-22T06:51:52.603Z,13.75
2022-10-22T06:54:22.538Z,13.77
2022-10-22T06:56:52.800Z,13.79
2022-10-22T06:59:22.514Z,13.81
2022-10-22T07:01:52.367Z,13.84
2022-10-22T07:04:24.741Z,13.87
2022-10-22T07:06:57.378Z,13.91
2022-10-22T07:09:27.115Z,13.93
2022-10-22T07:11:56.825Z,13.93
2022-10-22T07:14:26.585Z,13.96
2022-10-22T07:16:56.257Z,13.97
2022-10-22T07:19:28.573Z,14.00
2022-10-22T07:21:58.309Z,14.01
2022-10-22T07:24:28.188Z,14.01
2022-10-22T07:26:57.898Z,14.03
2022-10-22T07:29:28.546Z,14.04
2022-10-22T07:31:58.217Z,14.07
2022-10-22T07:34:30.586Z,14.07
2022-10-22T07:37:00.402Z,14.10
2022-10-22T07:39:30.431Z,14.10
2022-10-22T07:42:00.138Z,14.12
2022-10-22T07:44:30.079Z,14.13
2022-10-22T07:46:59.758Z,14.15
2022-10-22T07:49:32.071Z,14.19
2022-10-22T07:52:01.781Z,14.20
2022-10-22T07:54:31.647Z,14.23
2022-10-22T07:57:01.489Z,14.24
2022-10-22T07:59:31.154Z,14.26
2022-10-22T08:02:36.495Z,14.28
2022-10-22T08:05:13.731Z,14.29
2022-10-22T08:07:44.025Z,14.32
2022-10-22T08:10:14.894Z,14.34
2022-10-22T08:12:44.871Z,14.35
2022-10-22T08:15:14.713Z,14.38
2022-10-22T08:17:44.644Z,14.41
2022-10-22T08:20:17.475Z,14.44
2022-10-22T08:22:47.596Z,14.46
2022-10-22T08:25:18.400Z,14.49
2022-10-22T08:27:48.363Z,14.52
2022-10-22T08:30:18.598Z,14.56
2022-10-22T08:32:51.611Z,14.61
2022-10-22T08:35:26.365Z,14.65
2022-10-22T08:37:56.064Z,14.70
2022-10-22T08:40:33.680Z,14.75
2022-10-22T08:43:24.346Z,14.82
2022-10-22T08:46:02.734Z,14.85
2022-10-22T08:48:45.834Z,14.91
2022-10-22T08:51:20.997Z,14.98
2022-10-22T08:54:04.166Z,15.04
2022-10-22T08:56:35.685Z,15.10
2022-10-22T08:59:13.457Z,15.17
2022-10-22T09:01:48.481Z,15.22
2022-10-22T09:04:25.622Z,15.29
2022-10-22T09:07:01.324Z,15.36
2022-10-22T09:09:36.790Z,15.42
2022-10-22T09:12:08.774Z,15.48
2022-10-22T09:14:38.549Z,15.54
2022-10-22T09:17:19.212Z,15.61
2022-10-22T09:20:00.769Z,15.68
2022-10-22T09:22:41.523Z,15.76
2022-10-22T09:25:23.316Z,15.84
2022-10-22T09:27:58.440Z,15.90
2022-10-22T09:30:30.584Z,15.98
2022-10-22T09:33:04.695Z,16.05
2022-10-22T09:35:37.670Z,16.10
2022-10-22T09:38:11.912Z,16.15
2022-10-22T09:40:50.883Z,16.19
2022-10-22T09:43:21.136Z,16.22
2022-10-22T09:45:58.105Z,16.24
2022-10-22T09:48:34.570Z,16.25
2022-10-22T09:51:09.600Z,16.26
2022-10-22T09:53:46.157Z,16.28
2022-10-22T09:56:26.790Z,16.29
2022-10-22T09:58:59.482Z,16.33
2022-10-22T10:01:31.605Z,16.36
2022-10-22T10:04:09.854Z,16.40
2022-10-22T10:06:42.049Z,16.42
2022-10-22T10:09:19.917Z,16.43
2022-10-22T10:11:56.065Z,16.44
2022-10-22T10:14:38.166Z,16.46
2022-10-22T10:17:18.430Z,16.46
2022-10-22T10:20:02.906Z,16.47
2022-10-22T10:22:45.890Z,16.49
2022-10-22T10:25:35.394Z,16.50
2022-10-22T10:28:22.717Z,16.50
2022-10-22T10:31:00.134Z,16.51
2022-10-22T10:33:41.201Z,16.54
2022-10-22T10:36:19.585Z,16.57
2022-10-22T10:38:59.786Z,16.62
2022-10-22T10:41:40.641Z,16.61
2022-10-22T10:44:25.653Z,16.64
2022-10-22T10:47:06.965Z,16.67
2022-10-22T10:49:39.013Z,16.68
2022-10-22T10:52:20.566Z,16.70
2022-10-22T10:55:02.250Z,16.67
2022-10-22T10:57:45.618Z,16.68
2022-10-22T11:00:19.996Z,16.72
2022-10-22T11:03:32.376Z,16.75
2022-10-22T11:06:05.158Z,16.73
2022-10-22T11:08:37.798Z,16.71
2022-10-22T11:11:13.259Z,16.73
2022-10-22T11:13:52.113Z,16.73
2022-10-22T11:16:26.301Z,16.78
2022-10-22T11:19:02.615Z,16.80
2022-10-22T11:21:37.128Z,16.81
2022-10-22T11:24:15.805Z,16.82
2022-10-22T11:26:49.641Z,16.84
2022-10-22T11:29:28.263Z,16.84
2022-10-22T11:32:05.311Z,16.82
2022-10-22T11:34:43.603Z,16.75
2022-10-22T11:37:16.093Z,16.70
2022-10-22T11:39:50.389Z,16.65
2022-10-22T11:42:23.842Z,16.59
2022-10-22T11:45:08.633Z,16.54
2022-10-22T11:47:55.106Z,16.50
2022-10-22T11:50:28.069Z,16.46
2022-10-22T11:53:04.771Z,16.44
2022-10-22T11:55:46.126Z,16.41
2022-10-22T11:58:33.665Z,16.35
2022-10-22T12:01:25.732Z,16.33
2022-10-22T12:04:16.908Z,16.30
2022-10-22T12:06:59.988Z,16.30
2022-10-22T12:09:33.652Z,16.29
2022-10-22T12:12:15.608Z,16.33
2022-10-22T12:14:57.279Z,16.37
2022-10-22T12:17:31.633Z,16.40
2022-10-22T12:20:05.165Z,16.46
2022-10-22T12:22:37.793Z,16.47
2022-10-22T12:25:21.620Z,16.50
2022-10-22T12:27:55.149Z,16.51
2022-10-22T12:30:27.220Z,16.52
2022-10-22T12:33:01.560Z,16.52
2022-10-22T12:35:34.039Z,16.49
2022-10-22T12:38:05.946Z,16.48
2022-10-22T12:40:37.738Z,16.50
2022-10-22T12:43:14.949Z,16.51
2022-10-22T12:45:48.274Z,16.51
2022-10-22T12:48:23.600Z,16.55
2022-10-22T12:50:56.258Z,16.59
2022-10-22T12:53:30.021Z,16.66
2022-10-22T12:56:04.424Z,16.72
2022-10-22T12:58:41.116Z,16.78
2022-10-22T13:01:13.927Z,16.82
2022-10-22T13:03:50.005Z,16.84
2022-10-22T13:06:28.524Z,16.85
2022-10-22T13:09:17.439Z,16.87
2022-10-22T13:11:53.832Z,16.89
2022-10-22T13:14:29.652Z,16.91
2022-10-22T13:17:15.039Z,16.91
2022-10-22T13:19:51.093Z,16.92
2022-10-22T13:22:32.894Z,16.92
2022-10-22T13:25:08.194Z,16.94
2022-10-22T13:27:46.055Z,16.96
2022-10-22T13:30:22.490Z,16.97
2022-10-22T13:32:54.109Z,17.01
2022-10-22T13:35:29.282Z,17.04
2022-10-22T13:37:59.000Z,17.06
2022-10-22T13:40:29.221Z,17.08
2022-10-22T13:42:58.916Z,17.08
2022-10-22T13:45:28.605Z,17.06
2022-10-22T13:47:58.363Z,17.08
2022-10-22T13:50:30.633Z,17.12
2022-10-22T13:53:01.527Z,17.15
2022-10-22T13:55:33.457Z,17.16
2022-10-22T13:58:07.439Z,17.17
2022-10-22T14:00:37.322Z,17.16
2022-10-22T14:03:07.958Z,17.16
2022-10-22T14:05:40.309Z,17.16
2022-10-22T14:08:14.511Z,17.16
2022-10-22T14:10:44.259Z,17.19
2022-10-22T14:13:14.858Z,17.20
2022-10-22T14:15:45.589Z,17.20
2022-10-22T14:18:24.292Z,17.20
2022-10-22T14:20:59.167Z,17.21
2022-10-22T14:23:31.021Z,17.24
2022-10-22T14:26:01.909Z,17.29
2022-10-22T14:28:40.992Z,17.30
2022-10-22T14:31:16.283Z,17.32
2022-10-22T14:33:46.704Z,17.28
2022-10-22T14:36:20.961Z,17.27
2022-10-22T14:38:51.690Z,17.26
2022-10-22T14:41:24.186Z,17.25
2022-10-22T14:43:55.952Z,17.24
2022-10-22T14:46:25.848Z,17.25
2022-10-22T14:48:55.601Z,17.25
2022-10-22T14:51:30.173Z,17.27
2022-10-22T14:53:59.890Z,17.28
2022-10-22T14:56:29.608Z,17.27
2022-10-22T14:58:59.357Z,17.25
2022-10-22T15:01:29.106Z,17.24
2022-10-22T15:03:58.877Z,17.22
2022-10-22T15:06:31.190Z,17.19
2022-10-22T15:09:00.940Z,17.18
2022-10-22T15:11:30.720Z,17.18
2022-10-22T15:14:00.418Z,17.17
2022-10-22T15:16:30.609Z,17.15
2022-10-22T15:19:01.097Z,17.12
2022-10-22T15:21:33.488Z,17.04
2022-10-22T15:24:04.828Z,17.01
2022-10-22T15:26:34.773Z,16.95
2022-10-22T15:29:05.850Z,16.90
2022-10-22T15:31:49.729Z,16.86
2022-10-22T15:34:23.733Z,16.81
2022-10-22T15:36:57.749Z,16.78
2022-10-22T15:39:27.996Z,16.73
2022-10-22T15:41:58.770Z,16.69
2022-10-22T15:44:31.424Z,16.64
2022-10-22T15:47:02.716Z,16.58
2022-10-22T15:49:32.505Z,16.54
2022-10-22T15:52:04.952Z,16.50
2022-10-22T15:54:35.005Z,16.44
2022-10-22T15:57:08.735Z,16.41
2022-10-22T15:59:39.117Z,16.35
2022-10-22T16:02:10.549Z,16.30
2022-10-22T16:04:40.936Z,16.28
2022-10-22T16:07:13.296Z,16.25
2022-10-22T16:09:43.056Z,16.19
2022-10-22T16:12:15.268Z,16.12
2022-10-22T16:14:46.995Z,16.07
2022-10-22T16:17:16.762Z,16.04
2022-10-22T16:19:46.901Z,16.00
2022-10-22T16:22:19.303Z,15.99
2022-10-22T16:24:49.129Z,15.97
2022-10-22T16:27:18.898Z,15.94
2022-10-22T16:29:49.106Z,15.94
2022-10-22T16:32:19.041Z,15.93
2022-10-22T16:34:48.856Z,15.97
2022-10-22T16:37:21.250Z,15.97
2022-10-22T16:39:51.103Z,15.97
2022-10-22T16:42:20.828Z,15.96
2022-10-22T16:44:50.584Z,15.96
2022-10-22T16:47:20.323Z,15.94
2022-10-22T16:49:50.071Z,15.92
2022-10-22T16:52:22.700Z,15.91
2022-10-22T16:54:52.514Z,15.87
2022-10-22T16:57:22.283Z,15.82
2022-10-22T16:59:52.029Z,15.79
2022-10-22T17:02:21.797Z,15.77
2022-10-22T17:04:51.584Z,15.75
2022-10-22T17:07:23.956Z,15.73
2022-10-22T17:09:56.663Z,15.70
2022-10-22T17:12:26.762Z,15.67
2022-10-22T17:14:56.491Z,15.66
2022-10-22T17:17:26.530Z,15.63
2022-10-22T17:19:56.338Z,15.59
2022-10-22T17:22:29.112Z,15.56
2022-10-22T17:25:11.614Z,15.51
2022-10-22T17:27:41.697Z,15.45
2022-10-22T17:30:15.394Z,15.41
2022-10-22T17:32:45.699Z,15.36
2022-10-22T17:35:18.375Z,15.29
2022-10-22T17:37:50.734Z,15.26
2022-10-22T17:40:21.734Z,15.23
2022-10-22T17:42:51.608Z,15.21
2022-10-22T17:45:21.343Z,15.18
2022-10-22T17:47:53.822Z,15.15
2022-10-22T17:50:23.633Z,15.12
2022-10-22T17:52:56.052Z,15.08
2022-10-22T17:55:25.839Z,15.06
2022-10-22T17:57:55.580Z,15.02
2022-10-22T18:00:25.388Z,15.00
2022-10-22T18:02:55.234Z,14.96
2022-10-22T18:05:27.751Z,14.93
2022-10-22T18:08:03.294Z,14.91
2022-10-22T18:10:41.749Z,14.86
2022-10-22T18:13:11.581Z,14.83
2022-10-22T18:15:41.437Z,14.80
2022-10-22T18:18:11.841Z,14.75
2022-10-22T18:20:41.538Z,14.71
2022-10-22T18:23:15.243Z,14.67
2022-10-22T18:25:45.001Z,14.63
2022-10-22T18:28:16.101Z,14.59
2022-10-22T18:30:46.525Z,14.56
2022-10-22T18:33:17.560Z,14.52
2022-10-22T18:35:49.222Z,14.51
2022-10-22T18:38:22.753Z,14.48
2022-10-22T18:40:53.366Z,14.46
2022-10-22T18:43:23.122Z,14.42
2022-10-22T18:45:52.999Z,14.40
2022-10-22T18:48:24.059Z,14.39
2022-10-22T18:51:02.071Z,14.37
2022-10-22T18:53:34.630Z,14.34
2022-10-22T18:56:04.525Z,14.31
2022-10-22T18:58:34.405Z,14.28
2022-10-22T19:01:10.064Z,14.26
2022-10-22T19:03:40.115Z,14.25
2022-10-22T19:06:10.388Z,14.23
2022-10-22T19:08:43.627Z,14.22
2022-10-22T19:11:16.710Z,14.19
2022-10-22T19:13:46.422Z,14.16
2022-10-22T19:16:23.631Z,14.15
2022-10-22T19:18:54.801Z,14.13
2022-10-22T19:21:24.720Z,14.08
2022-10-22T19:23:57.991Z,14.06
2022-10-22T19:26:29.185Z,14.03
2022-10-22T19:29:00.837Z,14.02
2022-10-22T19:31:32.558Z,14.00
2022-10-22T19:34:04.128Z,13.97
2022-10-22T19:36:36.074Z,13.94
2022-10-22T19:39:09.085Z,13.92
2022-10-22T19:41:39.557Z,13.89
2022-10-22T19:44:09.251Z,13.84
2022-10-22T19:46:39.497Z,13.82
2022-10-22T19:49:09.274Z,13.79
2022-10-22T19:51:40.311Z,13.75
2022-10-22T19:54:18.992Z,13.71
2022-10-22T19:56:49.823Z,13.66
2022-10-22T19:59:22.813Z,13.62
2022-10-22T20:01:52.857Z,13.59
2022-10-22T20:04:25.188Z,13.56
2022-10-22T20:06:54.961Z,13.55
2022-10-22T20:09:27.738Z,13.52
2022-10-22T20:11:57.553Z,13.50
2022-10-22T20:14:27.324Z,13.49
2022-10-22T20:16:57.334Z,13.48
2022-10-22T20:19:29.355Z,13.45
2022-10-22T20:24:31.498Z,13.39
2022-10-22T20:27:01.219Z,13.38
2022-10-22T20:29:30.904Z,13.35
2022-10-22T20:32:01.568Z,13.35
2022-10-22T20:34:33.001Z,13.32
2022-10-22T20:37:02.747Z,13.32
2022-10-22T20:39:35.113Z,13.32
2022-10-22T20:42:04.955Z,13.30
2022-10-22T20:44:34.681Z,13.29
2022-10-22T20:47:04.398Z,13.28
2022-10-22T20:49:34.765Z,13.27
2022-10-22T20:52:04.525Z,13.26
2022-10-22T20:54:41.461Z,13.26
2022-10-22T20:57:11.393Z,13.25
2022-10-22T20:59:41.112Z,13.25
2022-10-22T21:02:11.994Z,13.23
2022-10-22T21:04:44.103Z,13.22
2022-10-22T21:07:15.437Z,13.21
2022-10-22T21:09:47.760Z,13.21
2022-10-22T21:12:17.451Z,13.18
2022-10-22T21:14:47.184Z,13.19
2022-10-22T21:17:16.886Z,13.18
2022-10-22T21:19:46.572Z,13.18
2022-10-22T21:22:16.237Z,13.17
2022-10-22T21:24:48.526Z,13.19
2022-10-22T21:27:18.233Z,13.17
2022-10-22T21:29:47.929Z,13.17
2022-10-22T21:32:17.946Z,13.16
2022-10-22T21:34:47.645Z,13.17
2022-10-22T21:37:17.326Z,13.16
2022-10-22T21:39:50.061Z,13.15
2022-10-22T21:42:20.274Z,13.14
2022-10-22T21:44:50.191Z,13.14
2022-10-22T21:47:19.937Z,13.13
2022-10-22T21:49:49.766Z,13.13
2022-10-22T21:52:19.495Z,13.13
2022-10-22T21:54:51.845Z,13.13
2022-10-22T21:57:21.560Z,13.12
2022-10-22T21:59:51.297Z,13.13
2022-10-22T22:04:50.675Z,13.12
2022-10-22T22:07:20.426Z,13.12
2022-10-22T22:09:52.936Z,13.11
2022-10-22T22:12:23.021Z,13.09
2022-10-22T22:14:52.734Z,13.10
2022-10-22T22:17:22.419Z,13.09
2022-10-22T22:19:52.154Z,13.07
2022-10-22T22:22:21.986Z,13.06
2022-10-22T22:24:54.407Z,13.05
2022-10-22T22:27:24.122Z,13.05
2022-10-22T22:29:53.818Z,13.03
2022-10-22T22:32:23.557Z,13.04
2022-10-22T22:34:53.383Z,13.03
2022-10-22T22:37:23.154Z,13.03
2022-10-22T22:39:56.074Z,13.04
2022-10-22T22:42:25.825Z,13.03
2022-10-22T22:44:55.594Z,13.03
2022-10-22T22:47:25.325Z,13.03
2022-10-22T22:49:55.057Z,13.02
2022-10-22T22:52:24.956Z,13.03
2022-10-22T22:54:57.352Z,13.02
2022-10-22T22:57:27.057Z,13.00
2022-10-22T22:59:56.752Z,12.97
2022-10-22T23:02:26.520Z,12.97
2022-10-22T23:04:56.247Z,12.94
2022-10-22T23:07:26.223Z,12.93
2022-10-22T23:09:58.644Z,12.90
2022-10-22T23:12:29.046Z,12.87
2022-10-22T23:15:02.173Z,12.84
2022-10-22T23:17:31.942Z,12.81
2022-10-22T23:20:01.684Z,12.78
2022-10-22T23:22:31.445Z,12.75
2022-10-22T23:25:03.919Z,12.73
2022-10-22T23:27:33.624Z,12.72
2022-10-22T23:30:03.337Z,12.67
2022-10-22T23:32:33.070Z,12.65
2022-10-22T23:35:02.756Z,12.62
2022-10-22T23:37:32.459Z,12.61
2022-10-22T23:40:04.774Z,12.60
2022-10-22T23:42:34.543Z,12.58
2022-10-22T23:45:04.301Z,12.55
2022-10-22T23:47:33.964Z,12.56
2022-10-22T23:50:03.669Z,12.54
2022-10-22T23:52:33.381Z,12.53
2022-10-22T23:55:05.694Z,12.51
2022-10-22T23:57:35.406Z,12.50
